createdAt,value
2023-04-26T00:00:33.916Z,99363.02
2023-04-26T00:03:01.061Z,99361.67
2023-04-26T00:05:28.498Z,99359.59
2023-04-26T00:07:55.492Z,99360.63
2023-04-26T00:10:22.593Z,99358.66
2023-04-26T00:12:49.608Z,99364.77
2023-04-26T00:15:16.571Z,99364.33
2023-04-26T00:17:44.070Z,99363.73
2023-04-26T00:20:13.105Z,99368.47
2023-04-26T00:22:40.881Z,99369.66
2023-04-26T00:25:08.768Z,99370.10
2023-04-26T00:27:35.812Z,99368.87
2023-04-26T00:30:02.852Z,99370.44
2023-04-26T00:32:31.032Z,99370.48
2023-04-26T00:35:00.052Z,99368.80
2023-04-26T00:37:29.513Z,99368.73
2023-04-26T00:39:58.304Z,99363.77
2023-04-26T00:42:28.277Z,99364.32
2023-04-26T00:54:17.145Z,99358.29
2023-04-26T00:56:46.660Z,99358.37
2023-04-26T00:59:16.642Z,99357.17
2023-04-26T01:01:46.682Z,99357.61
2023-04-26T01:04:16.381Z,99352.33
2023-04-26T01:06:46.717Z,99353.91
2023-04-26T01:09:16.781Z,99351.08
2023-04-26T01:11:47.218Z,99348.73
2023-04-26T01:14:16.701Z,99345.50
2023-04-26T01:16:47.739Z,99344.48
2023-04-26T01:19:18.697Z,99342.34
2023-04-26T01:21:48.689Z,99338.45
2023-04-26T01:24:19.682Z,99335.56
2023-04-26T01:26:49.720Z,99334.42
2023-04-26T01:29:20.673Z,99332.34
2023-04-26T01:31:50.772Z,99330.92
2023-04-26T01:42:00.415Z,99325.63
2023-04-26T01:44:27.443Z,99324.40
2023-04-26T01:46:54.300Z,99328.15
2023-04-26T01:49:21.159Z,99325.94
2023-04-26T01:51:47.979Z,99324.60
2023-04-26T01:54:14.779Z,99323.90
2023-04-26T01:56:41.590Z,99324.20
2023-04-26T01:59:08.404Z,99323.58
2023-04-26T02:01:35.309Z,99325.39
2023-04-26T02:04:02.702Z,99321.86
2023-04-26T02:06:29.506Z,99323.77
2023-04-26T02:08:57.029Z,99322.77
2023-04-26T02:11:24.760Z,99322.75
2023-04-26T02:13:51.879Z,99321.70
2023-04-26T02:16:21.476Z,99316.86
2023-04-26T02:18:50.254Z,99318.23
2023-04-26T02:21:18.740Z,99320.44
2023-04-26T02:23:45.967Z,99319.10
2023-04-26T02:26:13.516Z,99315.25
2023-04-26T02:28:43.604Z,99315.15
2023-04-26T02:31:11.371Z,99314.73
2023-04-26T02:33:38.440Z,99316.41
2023-04-26T02:36:06.404Z,99319.25
2023-04-26T02:38:35.345Z,99317.63
2023-04-26T02:41:03.582Z,99312.20
2023-04-26T02:43:31.126Z,99310.38
2023-04-26T02:46:01.460Z,99310.02
2023-04-26T02:48:29.373Z,99310.35
2023-04-26T02:50:57.398Z,99318.16
2023-04-26T02:53:24.777Z,99321.45
2023-04-26T02:55:52.209Z,99320.36
2023-04-26T02:58:19.069Z,99319.47
2023-04-26T03:00:49.004Z,99316.45
2023-04-26T03:03:16.976Z,99314.38
2023-04-26T03:05:45.172Z,99317.88
2023-04-26T03:08:12.408Z,99319.79
2023-04-26T03:10:39.239Z,99324.65
2023-04-26T03:13:06.259Z,99323.30
2023-04-26T03:15:33.296Z,99319.23
2023-04-26T03:18:00.383Z,99321.54
2023-04-26T03:20:27.768Z,99322.31
2023-04-26T03:22:54.996Z,99322.28
2023-04-26T03:25:22.108Z,99324.70
2023-04-26T03:27:49.013Z,99323.59
2023-04-26T03:30:16.051Z,99325.37
2023-04-26T03:32:44.324Z,99327.16
2023-04-26T03:35:11.514Z,99327.60
2023-04-26T03:37:39.950Z,99327.00
2023-04-26T03:40:09.628Z,99327.02
2023-04-26T03:42:37.711Z,99328.05
2023-04-26T03:45:05.449Z,99327.45
2023-04-26T03:47:32.356Z,99328.67
2023-04-26T03:49:59.235Z,99329.02
2023-04-26T03:52:26.084Z,99333.31
2023-04-26T03:54:53.234Z,99335.11
2023-04-26T03:57:20.122Z,99333.63
2023-04-26T03:59:47.021Z,99335.71
2023-04-26T04:02:14.009Z,99341.92
2023-04-26T04:04:41.399Z,99341.39
2023-04-26T04:07:08.946Z,99342.08
2023-04-26T04:09:36.163Z,99343.96
2023-04-26T04:12:03.909Z,99344.59
2023-04-26T04:14:32.601Z,99342.40
2023-04-26T04:16:59.837Z,99340.44
2023-04-26T04:19:27.781Z,99341.36
2023-04-26T04:21:55.272Z,99341.20
2023-04-26T04:24:22.418Z,99341.02
2023-04-26T04:26:49.247Z,99342.95
2023-04-26T04:29:16.788Z,99344.70
2023-04-26T04:31:43.992Z,99348.34
2023-04-26T04:34:11.125Z,99347.02
2023-04-26T04:36:40.881Z,99348.49
2023-04-26T04:39:13.664Z,99347.45
2023-04-26T04:41:47.619Z,99345.03
2023-04-26T04:44:18.345Z,99346.13
2023-04-26T04:46:45.332Z,99346.56
2023-04-26T04:49:15.068Z,99349.69
2023-04-26T04:51:42.247Z,99350.08
2023-04-26T04:54:13.096Z,99346.55
2023-04-26T04:56:47.606Z,99344.70
2023-04-26T04:59:17.735Z,99340.02
2023-04-26T05:01:45.418Z,99342.90
2023-04-26T05:04:14.620Z,99341.45
2023-04-26T05:06:42.274Z,99344.14
2023-04-26T05:09:11.668Z,99346.48
2023-04-26T05:11:38.727Z,99344.78
2023-04-26T05:14:08.058Z,99339.86
2023-04-26T05:16:36.119Z,99342.02
2023-04-26T05:19:03.495Z,99341.44
2023-04-26T05:21:31.718Z,99340.83
2023-04-26T05:23:58.682Z,99337.35
2023-04-26T05:26:26.475Z,99338.27
2023-04-26T05:29:15.887Z,99337.54
2023-04-26T05:32:01.509Z,99339.99
2023-04-26T05:34:41.604Z,99337.36
2023-04-26T05:37:11.654Z,99334.37
2023-04-26T05:39:40.097Z,99337.09
2023-04-26T05:42:07.357Z,99333.35
2023-04-26T05:44:34.238Z,99331.89
2023-04-26T05:47:02.076Z,99334.11
2023-04-26T05:49:28.945Z,99333.46
2023-04-26T05:51:57.776Z,99333.27
2023-04-26T05:54:25.080Z,99335.80
2023-04-26T05:56:52.642Z,99333.87
2023-04-26T05:59:19.830Z,99330.13
2023-04-26T06:01:46.745Z,99329.19
2023-04-26T06:04:13.722Z,99326.98
2023-04-26T06:06:56.734Z,99330.17
2023-04-26T06:09:23.763Z,99331.82
2023-04-26T06:11:50.713Z,99323.02
2023-04-26T06:14:29.212Z,99328.27
2023-04-26T06:16:58.874Z,99332.92
2023-04-26T06:19:27.630Z,99334.58
2023-04-26T06:21:55.587Z,99334.41
2023-04-26T06:24:23.659Z,99332.08
2023-04-26T06:26:50.505Z,99335.14
2023-04-26T06:29:17.734Z,99336.85
2023-04-26T06:31:44.556Z,99337.71
2023-04-26T06:34:12.556Z,99337.00
2023-04-26T06:36:39.395Z,99338.45
2023-04-26T06:39:06.416Z,99340.83
2023-04-26T06:41:33.560Z,99337.33
2023-04-26T06:44:00.547Z,99335.71
2023-04-26T06:46:31.166Z,99333.52
2023-04-26T06:48:58.060Z,99332.52
2023-04-26T06:51:25.246Z,99331.11
2023-04-26T06:53:53.074Z,99331.80
2023-04-26T06:56:20.160Z,99335.09
2023-04-26T06:59:06.321Z,99335.71
2023-04-26T07:01:34.793Z,99341.88
2023-04-26T07:04:05.055Z,99341.23
2023-04-26T07:06:32.160Z,99339.13
2023-04-26T07:09:01.216Z,99341.59
2023-04-26T07:11:29.336Z,99346.23
2023-04-26T07:13:57.156Z,99344.85
2023-04-26T07:16:24.215Z,99339.06
2023-04-26T07:18:53.087Z,99340.73
2023-04-26T07:21:19.928Z,99335.73
2023-04-26T07:23:46.708Z,99336.23
2023-04-26T07:26:13.664Z,99336.23
2023-04-26T07:29:13.668Z,99340.48
2023-04-26T07:31:40.738Z,99346.58
2023-04-26T07:34:07.659Z,99344.17
2023-04-26T07:36:34.484Z,99346.03
2023-04-26T07:39:01.928Z,99351.05
2023-04-26T07:41:28.898Z,99345.80
2023-04-26T07:43:55.959Z,99346.59
2023-04-26T07:46:22.840Z,99346.80
2023-04-26T07:48:49.906Z,99350.98
2023-04-26T07:51:16.809Z,99350.15
2023-04-26T07:53:43.697Z,99347.98
2023-04-26T07:56:10.669Z,99351.64
2023-04-26T07:58:40.821Z,99348.81
2023-04-26T08:01:08.800Z,99345.88
2023-04-26T08:03:38.974Z,99349.42
2023-04-26T08:06:09.230Z,99349.54
2023-04-26T08:08:42.949Z,99349.14
2023-04-26T08:11:10.840Z,99348.36
2023-04-26T08:13:39.125Z,99346.92
2023-04-26T08:16:07.253Z,99350.16
2023-04-26T08:18:34.037Z,99347.51
2023-04-26T08:21:01.525Z,99348.02
2023-04-26T08:23:32.151Z,99348.70
2023-04-26T08:25:58.962Z,99347.70
2023-04-26T08:28:25.850Z,99344.94
2023-04-26T08:30:53.140Z,99346.38
2023-04-26T08:33:20.050Z,99344.14
2023-04-26T08:35:47.503Z,99342.33
2023-04-26T08:38:14.488Z,99339.61
2023-04-26T08:40:41.299Z,99337.34
2023-04-26T08:43:08.870Z,99337.04
2023-04-26T08:45:35.643Z,99333.84
2023-04-26T08:48:04.964Z,99329.56
2023-04-26T08:50:33.587Z,99328.05
2023-04-26T08:53:00.431Z,99327.19
2023-04-26T08:55:27.252Z,99323.60
2023-04-26T08:57:54.051Z,99326.98
2023-04-26T09:00:21.651Z,99323.32
2023-04-26T09:02:53.969Z,99324.41
2023-04-26T09:05:24.923Z,99323.42
2023-04-26T09:07:53.253Z,99319.79
2023-04-26T09:10:23.207Z,99317.10
2023-04-26T09:12:53.794Z,99315.10
2023-04-26T09:15:22.710Z,99311.10
2023-04-26T09:17:52.811Z,99305.46
2023-04-26T09:20:27.872Z,99304.19
2023-04-26T09:23:04.751Z,99303.02
2023-04-26T09:25:32.017Z,99300.87
2023-04-26T09:28:00.404Z,99298.72
2023-04-26T09:30:27.882Z,99297.98
2023-04-26T09:32:55.987Z,99296.86
2023-04-26T09:35:39.209Z,99294.87
2023-04-26T09:38:11.022Z,99290.23
2023-04-26T09:40:43.005Z,99298.98
2023-04-26T09:43:13.356Z,99301.02
2023-04-26T09:45:54.247Z,99299.61
2023-04-26T09:48:33.184Z,99299.14
2023-04-26T09:51:03.120Z,99301.55
2023-04-26T09:53:41.727Z,99300.88
2023-04-26T09:56:11.673Z,99304.85
2023-04-26T09:58:58.395Z,99308.63
2023-04-26T10:01:26.589Z,99302.98
2023-04-26T10:03:53.879Z,99306.64
2023-04-26T10:06:20.940Z,99309.73
2023-04-26T10:08:47.736Z,99309.28
2023-04-26T10:11:14.607Z,99313.49
2023-04-26T10:13:41.941Z,99317.35
2023-04-26T10:16:10.074Z,99327.35
2023-04-26T10:18:37.600Z,99329.20
2023-04-26T10:21:13.159Z,99327.20
2023-04-26T10:23:40.053Z,99339.58
2023-04-26T10:26:07.670Z,99344.02
2023-04-26T10:28:41.469Z,99345.23
2023-04-26T10:31:08.333Z,99349.09
2023-04-26T10:33:35.175Z,99357.14
2023-04-26T10:36:12.633Z,99359.56
2023-04-26T10:38:41.119Z,99360.80
2023-04-26T10:41:33.204Z,99358.41
2023-04-26T10:44:01.879Z,99352.35
2023-04-26T10:46:39.722Z,99356.51
2023-04-26T10:49:17.159Z,99354.46
2023-04-26T10:52:14.955Z,99360.91
2023-04-26T10:55:00.190Z,99362.80
2023-04-26T10:57:50.471Z,99361.61
2023-04-26T11:00:26.807Z,99363.33
2023-04-26T11:03:09.031Z,99355.65
2023-04-26T11:05:36.355Z,99355.63
2023-04-26T11:08:25.578Z,99352.88
2023-04-26T11:11:13.522Z,99345.67
2023-04-26T11:13:43.844Z,99342.52
2023-04-26T11:16:14.913Z,99343.28
2023-04-26T11:18:43.260Z,99341.06
2023-04-26T11:21:10.415Z,99340.41
2023-04-26T11:23:37.710Z,99341.45
2023-04-26T11:26:06.597Z,99343.02
2023-04-26T11:28:34.711Z,99338.85
2023-04-26T11:31:04.460Z,99336.80
2023-04-26T11:33:31.562Z,99337.68
2023-04-26T11:35:58.506Z,99337.00
2023-04-26T11:38:26.873Z,99332.91
2023-04-26T11:40:56.089Z,99331.52
2023-04-26T11:43:23.041Z,99324.59
2023-04-26T11:45:49.895Z,99324.27
2023-04-26T11:48:16.817Z,99328.40
2023-04-26T11:50:43.783Z,99327.73
2023-04-26T11:53:10.661Z,99326.35
2023-04-26T11:55:37.516Z,99324.15
2023-04-26T11:58:12.662Z,99321.80
2023-04-26T12:00:56.693Z,99320.81
2023-04-26T12:03:24.750Z,99316.48
2023-04-26T12:05:57.868Z,99317.65
2023-04-26T12:08:26.141Z,99317.20
2023-04-26T12:10:53.354Z,99314.20
2023-04-26T12:13:20.454Z,99314.60
2023-04-26T12:15:51.493Z,99322.91
2023-04-26T12:18:18.376Z,99316.80
2023-04-26T12:20:48.124Z,99315.09
2023-04-26T12:23:16.677Z,99317.80
2023-04-26T12:25:57.571Z,99318.90
2023-04-26T12:28:24.562Z,99324.68
2023-04-26T12:30:51.443Z,99335.63
2023-04-26T12:33:23.030Z,99337.45
2023-04-26T12:35:50.882Z,99340.00
2023-04-26T12:40:45.979Z,99348.53
2023-04-26T12:43:13.005Z,99350.42
2023-04-26T12:45:39.891Z,99354.60
2023-04-26T12:48:06.878Z,99361.56
2023-04-26T12:50:33.940Z,99367.44
2023-04-26T12:53:00.831Z,99362.95
2023-04-26T12:55:28.573Z,99360.81
2023-04-26T12:57:56.283Z,99363.30
2023-04-26T13:00:23.164Z,99361.95
2023-04-26T13:02:50.195Z,99363.32
2023-04-26T13:05:17.106Z,99365.80
2023-04-26T13:07:44.914Z,99360.28
2023-04-26T13:10:13.133Z,99357.71
2023-04-26T13:12:40.343Z,99359.52
2023-04-26T13:15:08.248Z,99355.04
2023-04-26T13:17:36.325Z,99355.59
2023-04-26T13:20:07.131Z,99353.31
2023-04-26T13:22:34.210Z,99355.52
2023-04-26T13:25:01.108Z,99356.00
2023-04-26T13:27:30.482Z,99357.69
2023-04-26T13:29:58.645Z,99353.27
2023-04-26T13:32:25.772Z,99354.31
2023-04-26T13:34:53.409Z,99354.45
2023-04-26T13:37:21.494Z,99352.96
2023-04-26T13:39:48.662Z,99350.94
2023-04-26T13:42:16.559Z,99349.33
2023-04-26T13:44:43.528Z,99349.14
2023-04-26T13:47:10.401Z,99346.67
2023-04-26T13:49:38.849Z,99348.59
2023-04-26T13:52:05.630Z,99347.02
2023-04-26T13:54:32.555Z,99345.81
2023-04-26T13:56:59.437Z,99342.77
2023-04-26T13:59:26.967Z,99340.14
2023-04-26T14:01:56.370Z,99340.09
2023-04-26T14:04:25.850Z,99336.33
2023-04-26T14:06:52.954Z,99337.14
2023-04-26T14:09:19.795Z,99338.88
2023-04-26T14:11:51.599Z,99341.46
2023-04-26T14:14:21.313Z,99335.31
2023-04-26T14:16:48.141Z,99338.83
2023-04-26T14:19:15.903Z,99337.02
2023-04-26T14:21:42.751Z,99335.91
2023-04-26T14:24:09.588Z,99333.91
2023-04-26T14:26:36.599Z,99330.94
2023-04-26T14:29:05.096Z,99327.54
2023-04-26T14:31:32.760Z,99324.38
2023-04-26T14:33:59.708Z,99320.75
2023-04-26T14:36:28.112Z,99317.52
2023-04-26T14:38:54.998Z,99321.36
2023-04-26T14:41:21.780Z,99319.59
2023-04-26T14:43:48.848Z,99318.65
2023-04-26T14:46:15.716Z,99317.30
2023-04-26T14:48:43.950Z,99318.67
2023-04-26T14:51:11.316Z,99314.45
2023-04-26T14:53:38.858Z,99314.41
2023-04-26T14:56:07.673Z,99311.20
2023-04-26T14:58:34.688Z,99312.77
2023-04-26T15:01:02.591Z,99309.81
2023-04-26T15:03:29.814Z,99312.15
2023-04-26T15:05:57.206Z,99310.84
2023-04-26T15:08:24.073Z,99309.72
2023-04-26T15:10:51.573Z,99306.30
2023-04-26T15:13:18.845Z,99305.59
2023-04-26T15:15:46.100Z,99305.64
2023-04-26T15:18:13.150Z,99304.92
2023-04-26T15:20:40.981Z,99303.70
2023-04-26T15:23:08.576Z,99300.16
2023-04-26T15:25:36.996Z,99301.62
2023-04-26T15:28:04.079Z,99299.73
2023-04-26T15:30:31.013Z,99299.34
2023-04-26T15:32:57.984Z,99299.21
2023-04-26T15:35:25.240Z,99295.42
2023-04-26T15:37:54.108Z,99293.98
2023-04-26T15:40:21.920Z,99288.96
2023-04-26T15:42:49.411Z,99291.96
2023-04-26T15:45:16.699Z,99291.39
2023-04-26T15:47:43.518Z,99293.06
2023-04-26T15:50:10.876Z,99294.10
2023-04-26T15:52:39.291Z,99297.88
2023-04-26T15:55:10.560Z,99296.58
2023-04-26T15:57:37.770Z,99296.05
2023-04-26T16:00:08.591Z,99293.63
2023-04-26T16:02:35.734Z,99292.72
2023-04-26T16:05:03.131Z,99294.64
2023-04-26T16:07:30.504Z,99296.27
2023-04-26T16:09:57.340Z,99302.27
2023-04-26T16:12:24.276Z,99302.21
2023-04-26T16:14:52.061Z,99310.52
2023-04-26T16:17:18.817Z,99312.95
2023-04-26T16:19:45.957Z,99316.63
2023-04-26T16:22:12.782Z,99317.70
2023-04-26T16:24:40.254Z,99319.70
2023-04-26T16:27:07.132Z,99323.50
2023-04-26T16:29:33.928Z,99320.33
2023-04-26T16:32:01.045Z,99319.20
2023-04-26T16:34:28.308Z,99322.83
2023-04-26T16:36:55.109Z,99324.34
2023-04-26T16:39:23.321Z,99328.99
2023-04-26T16:41:50.160Z,99327.63
2023-04-26T16:44:17.024Z,99327.32
2023-04-26T16:46:43.951Z,99326.94
2023-04-26T16:49:11.029Z,99331.52
2023-04-26T16:51:38.225Z,99334.77
2023-04-26T16:54:05.162Z,99337.79
2023-04-26T16:56:32.453Z,99344.94
2023-04-26T16:58:59.698Z,99343.75
2023-04-26T17:01:26.882Z,99342.40
2023-04-26T17:03:54.202Z,99348.10
2023-04-26T17:06:21.314Z,99352.02
2023-04-26T17:08:48.127Z,99350.69
2023-04-26T17:11:16.306Z,99355.34
2023-04-26T17:13:43.438Z,99357.02
2023-04-26T17:16:10.531Z,99359.06
2023-04-26T17:18:37.487Z,99364.67
2023-04-26T17:21:04.861Z,99366.77
2023-04-26T17:23:33.633Z,99364.36
2023-04-26T17:26:01.571Z,99368.54
2023-04-26T17:28:28.723Z,99372.17
2023-04-26T17:30:55.639Z,99374.13
2023-04-26T17:33:23.021Z,99376.91
2023-04-26T17:35:49.839Z,99377.33
2023-04-26T17:38:16.727Z,99376.08
2023-04-26T17:40:43.528Z,99379.89
2023-04-26T17:43:11.403Z,99383.31
2023-04-26T17:45:38.471Z,99388.40
2023-04-26T17:48:05.707Z,99390.91
2023-04-26T17:50:32.722Z,99396.02
2023-04-26T17:52:59.639Z,99397.66
2023-04-26T17:55:27.041Z,99397.52
2023-04-26T17:57:53.884Z,99398.86
2023-04-26T18:00:20.856Z,99399.92
2023-04-26T18:02:48.818Z,99402.13
2023-04-26T18:05:16.591Z,99400.83
2023-04-26T18:07:43.461Z,99402.75
2023-04-26T18:10:10.431Z,99403.38
2023-04-26T18:12:37.306Z,99405.13
2023-04-26T18:15:04.509Z,99402.95
2023-04-26T18:17:31.844Z,99403.94
2023-04-26T18:19:58.920Z,99404.74
2023-04-26T18:22:26.169Z,99403.80
2023-04-26T18:24:52.978Z,99406.23
2023-04-26T18:27:19.795Z,99408.62
2023-04-26T18:29:47.853Z,99410.51
2023-04-26T18:32:15.290Z,99413.00
2023-04-26T18:34:42.144Z,99416.55
2023-04-26T18:37:09.486Z,99418.06
2023-04-26T18:39:36.423Z,99418.98
2023-04-26T18:42:03.674Z,99417.52
2023-04-26T18:44:30.510Z,99420.42
2023-04-26T18:46:57.405Z,99421.98
2023-04-26T18:49:25.061Z,99421.86
2023-04-26T18:51:51.921Z,99423.35
2023-04-26T18:54:18.705Z,99422.73
2023-04-26T18:56:45.642Z,99422.08
2023-04-26T18:59:13.082Z,99423.57
2023-04-26T19:01:39.979Z,99423.18
2023-04-26T19:04:09.153Z,99422.79
2023-04-26T19:06:36.298Z,99421.29
2023-04-26T19:09:04.655Z,99418.33
2023-04-26T19:11:31.610Z,99420.31
2023-04-26T19:13:58.583Z,99416.26
2023-04-26T19:16:26.065Z,99418.73
2023-04-26T19:18:52.991Z,99416.99
2023-04-26T19:21:20.060Z,99417.95
2023-04-26T19:23:47.112Z,99420.05
2023-04-26T19:26:14.128Z,99421.67
2023-04-26T19:28:41.121Z,99419.86
2023-04-26T19:31:08.102Z,99421.05
2023-04-26T19:33:35.334Z,99420.75
2023-04-26T19:36:02.516Z,99423.22
2023-04-26T19:38:29.481Z,99425.60
2023-04-26T19:40:56.338Z,99424.65
2023-04-26T19:43:23.202Z,99424.65
2023-04-26T19:45:50.197Z,99430.00
2023-04-26T19:48:17.130Z,99432.55
2023-04-26T19:50:45.360Z,99432.59
2023-04-26T20:00:48.037Z,99431.79
2023-04-26T20:03:15.075Z,99434.16
2023-04-26T20:05:42.171Z,99432.30
2023-04-26T20:08:09.222Z,99431.29
2023-04-26T20:10:36.158Z,99433.03
2023-04-26T20:13:03.115Z,99431.90
2023-04-26T20:15:32.216Z,99427.73
2023-04-26T20:18:02.317Z,99429.26
2023-04-26T20:20:29.343Z,99426.80
2023-04-26T20:22:56.420Z,99425.95
2023-04-26T20:25:23.634Z,99425.66
2023-04-26T20:27:50.636Z,99424.71
2023-04-26T20:30:17.516Z,99427.84
2023-04-26T20:32:44.409Z,99425.98
2023-04-26T20:35:13.854Z,99425.63
2023-04-26T20:37:40.861Z,99426.15
2023-04-26T20:40:09.385Z,99430.11
2023-04-26T20:42:36.584Z,99429.89
2023-04-26T20:45:04.021Z,99429.81
2023-04-26T20:47:31.298Z,99429.39
2023-04-26T20:49:58.135Z,99433.45
2023-04-26T20:52:25.211Z,99428.36
2023-04-26T20:54:51.965Z,99429.92
2023-04-26T20:57:19.101Z,99434.08
2023-04-26T20:59:46.820Z,99437.23
2023-04-26T21:02:16.215Z,99439.04
2023-04-26T21:04:46.509Z,99443.20
2023-04-26T21:07:13.498Z,99447.59
2023-04-26T21:09:40.465Z,99452.85
2023-04-26T21:12:07.582Z,99455.02
2023-04-26T21:14:34.464Z,99457.08
2023-04-26T21:17:05.581Z,99463.05
2023-04-26T21:19:33.059Z,99460.66
2023-04-26T21:22:00.864Z,99462.42
2023-04-26T21:24:30.271Z,99464.85
2023-04-26T21:26:59.331Z,99463.92
2023-04-26T21:29:27.676Z,99463.39
2023-04-26T21:31:55.317Z,99459.98
2023-04-26T21:34:22.399Z,99460.14
2023-04-26T21:36:50.528Z,99460.01
2023-04-26T21:39:18.375Z,99458.58
2023-04-26T21:41:45.333Z,99461.56
2023-04-26T21:44:13.309Z,99460.59
2023-04-26T21:46:40.298Z,99461.63
2023-04-26T21:49:07.422Z,99464.14
2023-04-26T21:51:34.492Z,99465.27
2023-04-26T21:54:01.409Z,99467.11
2023-04-26T21:56:28.198Z,99468.08
2023-04-26T21:58:55.241Z,99470.92
2023-04-26T22:01:22.476Z,99465.85
2023-04-26T22:03:49.720Z,99466.61
2023-04-26T22:06:17.122Z,99469.65
2023-04-26T22:08:44.161Z,99472.52
2023-04-26T22:11:11.101Z,99469.56
2023-04-26T22:13:38.143Z,99465.05
2023-04-26T22:16:05.734Z,99464.00
2023-04-26T22:18:33.138Z,99464.66
2023-04-26T22:21:00.578Z,99465.56
2023-04-26T22:23:27.553Z,99467.49
2023-04-26T22:25:54.430Z,99470.52
2023-04-26T22:28:21.345Z,99471.52
2023-04-26T22:30:48.525Z,99475.30
2023-04-26T22:42:38.834Z,99460.63
2023-04-26T22:45:07.250Z,99462.75
2023-04-26T22:47:34.378Z,99462.29
2023-04-26T22:50:01.538Z,99463.18
2023-04-26T22:52:31.754Z,99463.34
2023-04-26T22:55:00.096Z,99459.95
2023-04-26T22:57:28.782Z,99463.66
2023-04-26T22:59:55.632Z,99459.67
2023-04-26T23:02:22.630Z,99460.55
2023-04-26T23:04:49.652Z,99463.81
2023-04-26T23:07:17.131Z,99463.45
2023-04-26T23:09:44.033Z,99462.86
2023-04-26T23:12:10.904Z,99461.27
2023-04-26T23:14:37.894Z,99460.14
2023-04-26T23:17:05.634Z,99458.81
2023-04-26T23:19:33.270Z,99459.41
2023-04-26T23:22:00.229Z,99456.95
2023-04-26T23:24:27.339Z,99461.66
2023-04-26T23:26:54.317Z,99463.69
2023-04-26T23:29:21.922Z,99461.23
2023-04-26T23:31:49.282Z,99465.94
2023-04-26T23:34:16.835Z,99468.52
2023-04-26T23:36:43.821Z,99471.77
2023-04-26T23:39:11.547Z,99477.23
2023-04-26T23:41:38.568Z,99478.20
2023-04-26T23:44:05.789Z,99479.20
2023-04-26T23:46:32.892Z,99473.59
2023-04-26T23:48:59.866Z,99474.03
2023-04-26T23:51:27.828Z,99478.55
2023-04-26T23:53:54.984Z,99481.73
2023-04-26T23:56:22.354Z,99478.23
2023-04-26T23:58:49.749Z,99476.74
